Aviation Digital Data Service (ADDS)

Output produced by METARs form (1029 UTC 07 December 2016)
found at http://aviationweather.gov/adds/metars/
 
KDEN 070827Z 0708/0812 07007KT 5SM -SN BR OVC040 
     FM071200 04008KT 3SM -SN SCT010 OVC018 
     TEMPO 0712/0715 1 1/2SM -SN BKN010 
     FM071500 03008KT 5SM -SN BKN012 OVC025 
     FM071700 02010KT P6SM VCSH SCT015 BKN025 
     FM072200 04008KT P6SM SCT050 BKN080 
     FM080200 16006KT P6SM FEW050 
     FM080800 VRB05KT P6SM VCFG FEW001